ADDS METAR Data INFO
IDs: Format: Raw Decoded Include TAF

Data at: 1951 UTC 14 Aug 2018

K20U 141935Z AUTO 15009G14KT 10SM CLR 24/07 A3007 RMK AO2
K20U 141915Z AUTO 10007G15KT 060V150 9SM CLR 24/07 A3008 RMK AO2
K20U 141855Z AUTO 13010G15KT 9SM CLR 24/07 A3009 RMK AO2
K20U 141835Z AUTO 09008KT 060V130 10SM CLR 23/07 A3009 RMK AO2
K20U 141815Z AUTO 15009KT 10SM CLR 23/07 A3010 RMK AO2 LTG DSNT S
K20U 141755Z AUTO 15007G14KT 10SM CLR 23/08 A3010 RMK AO2
K20U 141735Z AUTO 11007KT 10SM CLR 22/08 A3011 RMK AO2
K20U 141715Z AUTO 11006G12KT 10SM CLR 21/08 A3011 RMK AO2
K20U 141655Z AUTO 18007KT 140V200 9SM CLR 21/09 A3012 RMK AO2
K20U 141635Z AUTO 16009KT 10SM CLR 20/10 A3012 RMK AO2 LTG DSNT S
K20U 141615Z AUTO 15010KT 10SM CLR 19/10 A3012 RMK AO2
K20U 141555Z AUTO 16009G15KT 10SM CLR 19/11 A3012 RMK AO2
K20U 141535Z AUTO 16013KT 10SM CLR 18/10 A3013 RMK AO2 LTG DSNT S
K20U 141515Z AUTO 16014KT 9SM CLR 18/10 A3012 RMK AO2 LTG DSNT SE
K20U 141455Z AUTO 15014KT 10SM CLR 17/10 A3014 RMK AO2
K20U 141435Z AUTO 10SM CLR 16/10 A3013 RMK AO2
K20U 141415Z AUTO 16011G16KT 10SM CLR 16/11 A3014 RMK AO2 LTG DSNT S AND SW
K20U 141355Z AUTO 16007KT 10SM CLR 15/10 A3014 RMK AO2
K20U 141335Z AUTO 15005KT 10SM FEW080 13/10 A3014 RMK AO2
K20U 141315Z AUTO 14005KT 10SM SCT080 13/10 A3014 RMK AO2
K20U 141255Z AUTO 14005KT 10SM CLR 12/11 A3015 RMK AO2
K20U 141235Z AUTO 13006KT 10SM CLR 12/10 A3014 RMK AO2
K20U 141215Z AUTO 10SM FEW047 12/10 A3013 RMK AO2
K20U 141155Z AUTO 10SM BKN045 BKN075 12/10 A3013 RMK AO2
K20U 141135Z AUTO 00000KT 10SM SCT042 SCT049 OVC070 12/10 A3014 RMK AO2
K20U 141115Z AUTO 09004KT 10SM SCT041 SCT049 OVC075 12/10 A3014 RMK AO2
K20U 141055Z AUTO 13003KT 10SM SCT042 SCT060 OVC075 12/10 A3014 RMK AO2
K20U 141035Z AUTO 00000KT 10SM OVC043 12/10 A3014 RMK AO2 LTG DSNT S
K20U 141015Z AUTO 18005KT 10SM BKN041 BKN047 OVC070 12/10 A3015 RMK AO2
K20U 140955Z AUTO 20005KT 10SM BKN037 BKN044 OVC075 11/09 A3016 RMK AO2
K20U 140935Z AUTO 00000KT 10SM SCT034 BKN065 OVC075 11/09 A3015 RMK AO2
K20U 140915Z AUTO 17003KT 10SM FEW032 SCT040 OVC065 11/08 A3015 RMK AO2
K20U 140855Z AUTO 00000KT 10SM SCT032 OVC065 11/09 A3015 RMK AO2
K20U 140835Z AUTO 00000KT 10SM BKN034 OVC070 11/09 A3015 RMK AO2
K20U 140815Z AUTO 17003KT 10SM OVC035 11/09 A3015 RMK AO2
K20U 140755Z AUTO 18004KT 10SM BKN035 OVC041 10/08 A3015 RMK AO2
K20U 140735Z AUTO 00000KT 10SM BKN035 BKN041 OVC080 10/09 A3013 RMK AO2
K20U 140715Z AUTO 00000KT 10SM FEW035 SCT040 OVC085 10/09 A3014 RMK AO2
K20U 140655Z AUTO 00000KT 10SM FEW026 FEW041 OVC090 10/08 A3014 RMK AO2
K20U 140635Z AUTO 00000KT 10SM BKN025 OVC085 10/08 A3014 RMK AO2
K20U 140615Z AUTO 00000KT 10SM BKN026 OVC085 11/09 A3014 RMK AO2
K20U 140555Z AUTO 00000KT 10SM OVC027 11/08 A3015 RMK AO2
K20U 140535Z AUTO 00000KT 10SM OVC027 12/07 A3015 RMK AO2
K20U 140515Z AUTO 00000KT 10SM OVC028 11/07 A3015 RMK AO2
K20U 140455Z AUTO 00000KT 10SM OVC030 12/07 A3015 RMK AO2
K20U 140435Z AUTO 00000KT 10SM BKN028 OVC038 14/10 A3015 RMK AO2
K20U 140415Z AUTO 00000KT 10SM OVC027 14/09 A3016 RMK AO2
K20U 140355Z AUTO 00000KT 10SM OVC028 15/09 A3016 RMK AO2
K20U 140335Z AUTO 00000KT 10SM BKN028 OVC040 14/09 A3016 RMK AO2
K20U 140315Z AUTO 00000KT 10SM BKN027 BKN032 OVC042 15/09 A3016 RMK AO2
K20U 140255Z AUTO 00000KT 10SM FEW032 OVC042 16/09 A3016 RMK AO2
K20U 140235Z AUTO 00000KT 10SM BKN041 OVC090 16/08 A3015 RMK AO2
K20U 140215Z AUTO 10SM BKN090 16/08 A3014 RMK AO2
K20U 140155Z AUTO 10SM FEW095 16/09 A3014 RMK AO2
K20U 140135Z AUTO 10SM CLR 17/09 A3014 RMK AO2
K20U 140115Z AUTO 10SM CLR 18/09 A3014 RMK AO2
K20U 140055Z AUTO 10SM CLR 18/09 A3013 RMK AO2
K20U 140035Z AUTO 10SM CLR 19/09 A3013 RMK AO2
K20U 140015Z AUTO 10SM CLR 19/09 A3013 RMK AO2
K20U 132355Z AUTO 10SM CLR 20/08 A3013 RMK AO2
K20U 132335Z AUTO 36012G17KT 10SM FEW110 21/08 A3013 RMK AO2
K20U 132315Z AUTO 01012KT 9SM SCT110 21/08 A3013 RMK AO2
K20U 132255Z AUTO 02013KT 10SM SCT110 20/08 A3013 RMK AO2
K20U 132235Z AUTO 01013KT 10SM CLR 22/08 A3013 RMK AO2
K20U 132215Z AUTO 34013KT 10SM CLR 23/08 A3013 RMK AO2
K20U 132155Z AUTO 36013KT 9SM CLR 23/07 A3013 RMK AO2
K20U 132135Z AUTO 35013G19KT 9SM CLR 23/08 A3013 RMK AO2
K20U 132115Z AUTO 01012G18KT 9SM CLR 23/08 A3012 RMK AO2
K20U 132055Z AUTO 36014KT 10SM CLR 23/07 A3013 RMK AO2
K20U 132035Z AUTO 35012KT 10SM CLR 23/08 A3012 RMK AO2
K20U 132015Z AUTO 01011G18KT 9SM CLR 23/09 A3012 RMK AO2
K20U 131955Z AUTO 35013G19KT 9SM CLR 23/09 A3012 RMK AO2
K20U 131935Z AUTO 35013G18KT 9SM CLR 24/09 A3012 RMK AO2
K20U 131915Z AUTO 02009G18KT 9SM CLR 24/10 A3011 RMK AO2
K20U 131855Z AUTO 02017KT 9SM CLR 23/09 A3011 RMK AO2
K20U 131835Z AUTO 35013G20KT 10SM CLR 23/09 A3012 RMK AO2
K20U 131815Z AUTO 36014KT 9SM CLR 23/10 A3012 RMK AO2
K20U 131755Z AUTO 02012G19KT 9SM CLR 23/11 A3013 RMK AO2
K20U 131735Z AUTO 02011G17KT 9SM CLR 23/11 A3012 RMK AO2
K20U 131715Z AUTO 36015KT 9SM CLR 23/11 A3012 RMK AO2
K20U 131655Z AUTO 01015KT 9SM CLR 23/11 A3011 RMK AO2
K20U 131635Z AUTO 01011G17KT 9SM CLR 23/11 A3011 RMK AO2 LTG DSNT NW
K20U 131615Z AUTO 01012G18KT 9SM CLR 22/11 A3011 RMK AO2
K20U 131555Z AUTO 01014KT 10SM CLR 21/11 A3010 RMK AO2
K20U 131535Z AUTO 9SM CLR 21/12 A3010 RMK AO2
K20U 131515Z AUTO 01017KT 9SM CLR 21/12 A3008 RMK AO2
K20U 131455Z AUTO 36016KT 9SM CLR 21/12 A3008 RMK AO2
K20U 131435Z AUTO 9SM CLR 20/13 A3007 RMK AO2
K20U 131415Z AUTO 9SM CLR 20/14 A3004 RMK AO2
K20U 131355Z AUTO 9SM CLR 19/14 A3006 RMK AO2
K20U 131335Z AUTO 9SM CLR 19/13 A3006 RMK AO2
K20U 131315Z AUTO 9SM CLR 19/13 A3006 RMK AO2
K20U 131255Z AUTO 9SM CLR 20/13 A3004 RMK AO2
K20U 131235Z AUTO 36011KT 9SM CLR 20/13 A3002 RMK AO2
K20U 131215Z AUTO 36012KT 9SM FEW038 FEW090 SCT120 21/12 A2999 RMK AO2
K20U 131155Z AUTO 36010G16KT 10SM CLR 21/12 A2999 RMK AO2
K20U 131135Z AUTO 10SM FEW055 FEW075 SCT090 21/13 A2998 RMK AO2
K20U 131115Z AUTO 01011KT 10SM FEW040 SCT085 BKN120 21/15 A2998 RMK AO2
K20U 131055Z AUTO 01005G10KT 10SM FEW022 SCT060 BKN075 21/15 A2999 RMK AO2
K20U 131035Z AUTO 03005G15KT 10SM SCT021 21/15 A2998 RMK AO2
K20U 131015Z AUTO 34005G11KT 10SM SCT021 BKN030 BKN050 21/15 A2997 RMK AO2
K20U 130955Z AUTO 35006G15KT 9SM FEW019 BKN055 OVC070 22/15 A2996 RMK AO2
K20U 130935Z AUTO 02011G17KT 10SM FEW039 SCT055 BKN070 22/15 A2995 RMK AO2
K20U 130915Z AUTO 02010KT 10SM FEW024 SCT040 BKN120 22/14 A2995 RMK AO2
K20U 130855Z AUTO 01007KT 9SM SCT023 SCT042 SCT120 22/14 A2995 RMK AO2
K20U 130835Z AUTO 35008KT 9SM FEW049 FEW060 22/14 A2996 RMK AO2
K20U 130815Z AUTO 01015KT 9SM SCT049 SCT060 23/14 A2994 RMK AO2
K20U 130755Z AUTO 34015KT 10SM FEW050 FEW120 23/14 A2998 RMK AO2